Terminal Aerodrome Forecast
Issued by NWS Louisville, KY

Home | Current Version | Previous Version | Text Only | Print | Product List | Glossary On
Versions: 1 2 3 4 5 6 7 8 9 10 11 12 13 14 15 16 17 18
000
FTUS43 KLMK 241700
TAFSDF
TAF
KSDF 241729Z 2418/2524 VRB04KT P6SM BKN250
     FM242100 15007KT P6SM BKN100
     FM250500 13005KT P6SM VCSH BKN050
     FM251000 13007KT 5SM -SHRA BKN025
     FM251200 15010KT 4SM SHRA BR BKN012=

USA.gov is the U.S. government's official web portal to all federal, state and local government web resources and services.